createdAt,value
2019-04-27T00:00:43.395Z,0.00
2019-04-27T00:01:45.300Z,0.00
2019-04-27T00:02:43.597Z,0.00
2019-04-27T00:03:44.845Z,0.00
2019-04-27T00:04:43.314Z,0.00
2019-04-27T00:05:43.494Z,0.00
2019-04-27T00:06:46.423Z,0.00
2019-04-27T00:07:43.970Z,0.00
2019-04-27T00:08:43.294Z,0.00
2019-04-27T00:09:50.128Z,0.00
2019-04-27T00:10:43.709Z,0.00
2019-04-27T00:11:45.452Z,0.00
2019-04-27T00:12:43.290Z,0.00
2019-04-27T00:13:44.001Z,0.00
2019-04-27T00:14:43.910Z,0.00
2019-04-27T00:15:43.938Z,0.00
2019-04-27T00:16:46.883Z,0.00
2019-04-27T00:17:48.590Z,0.00
2019-04-27T00:18:45.503Z,0.00
2019-04-27T00:19:43.840Z,0.00
2019-04-27T00:20:43.477Z,0.00
2019-04-27T00:21:43.235Z,0.00
2019-04-27T00:22:43.605Z,0.00
2019-04-27T00:23:43.222Z,0.00
2019-04-27T00:24:44.202Z,0.00
2019-04-27T00:25:43.783Z,0.00
2019-04-27T00:26:43.319Z,0.00
2019-04-27T00:27:43.614Z,0.00
2019-04-27T00:28:43.448Z,0.00
2019-04-27T00:29:43.299Z,0.00
2019-04-27T00:30:43.876Z,0.00
2019-04-27T00:31:43.547Z,0.00
2019-04-27T00:32:43.398Z,0.00
2019-04-27T00:33:43.540Z,0.00
2019-04-27T00:34:43.249Z,0.00
2019-04-27T00:35:43.773Z,0.00
2019-04-27T00:36:43.560Z,0.00
2019-04-27T00:37:44.924Z,0.00
2019-04-27T00:38:43.605Z,0.00
2019-04-27T00:39:43.357Z,0.00
2019-04-27T00:40:43.657Z,0.00
2019-04-27T00:41:43.135Z,0.00
2019-04-27T00:42:44.102Z,0.00
2019-04-27T00:43:44.463Z,0.00
2019-04-27T00:44:43.117Z,0.00
2019-04-27T00:45:43.700Z,0.00
2019-04-27T00:46:43.195Z,0.00
2019-04-27T00:47:54.714Z,0.00
2019-04-27T00:48:43.351Z,0.00
2019-04-27T00:49:44.332Z,0.00
2019-04-27T00:50:43.905Z,0.00
2019-04-27T00:51:43.463Z,0.00
2019-04-27T00:52:43.078Z,0.00
2019-04-27T00:53:43.505Z,0.00
2019-04-27T00:54:44.148Z,0.00
2019-04-27T00:55:43.501Z,0.00
2019-04-27T00:56:43.058Z,0.00
2019-04-27T00:57:43.504Z,0.00
2019-04-27T00:58:45.316Z,0.00
2019-04-27T00:59:43.188Z,0.00
2019-04-27T01:00:43.985Z,0.00
2019-04-27T01:01:43.572Z,0.00
2019-04-27T01:02:43.516Z,0.00
2019-04-27T01:03:43.144Z,0.00
2019-04-27T01:04:43.020Z,0.00
2019-04-27T01:05:43.150Z,0.00
2019-04-27T01:06:43.773Z,0.00
2019-04-27T01:07:43.426Z,0.00
2019-04-27T01:08:44.923Z,0.00
2019-04-27T01:09:42.988Z,0.00
2019-04-27T01:10:43.573Z,0.00
2019-04-27T01:11:43.426Z,0.00
2019-04-27T01:12:43.108Z,0.00
2019-04-27T01:13:43.482Z,0.00
2019-04-27T01:14:45.085Z,0.00
2019-04-27T01:15:43.120Z,0.00
2019-04-27T01:16:42.955Z,0.00
2019-04-27T01:17:42.948Z,0.00
2019-04-27T01:18:42.940Z,0.00
2019-04-27T01:19:42.935Z,0.00
2019-04-27T01:20:42.926Z,0.00
2019-04-27T01:21:42.931Z,0.00
2019-04-27T01:22:42.920Z,0.00
2019-04-27T01:23:42.914Z,0.00
2019-04-27T01:24:42.912Z,0.00
2019-04-27T01:25:42.904Z,0.00
2019-04-27T01:26:42.897Z,0.00
2019-04-27T01:27:42.895Z,0.00
2019-04-27T01:28:42.889Z,0.00
2019-04-27T01:29:42.883Z,0.00
2019-04-27T01:30:42.876Z,0.00
2019-04-27T01:31:42.887Z,0.00
2019-04-27T01:32:42.867Z,0.00
2019-04-27T01:33:42.862Z,0.00
2019-04-27T01:34:42.856Z,0.00
2019-04-27T01:35:42.850Z,0.00
2019-04-27T01:36:42.847Z,0.00
2019-04-27T01:37:42.843Z,0.00
2019-04-27T01:38:42.863Z,0.00
2019-04-27T01:39:42.831Z,0.00
2019-04-27T01:40:42.827Z,0.00
2019-04-27T01:41:42.820Z,0.00
2019-04-27T01:42:42.814Z,0.00
2019-04-27T01:43:42.810Z,0.00
2019-04-27T01:44:42.806Z,0.00
2019-04-27T01:45:42.802Z,0.00
2019-04-27T01:46:42.798Z,0.00
2019-04-27T01:47:42.793Z,0.00
2019-04-27T01:48:42.787Z,0.00
2019-04-27T01:49:42.785Z,0.00
2019-04-27T01:50:42.777Z,0.00
2019-04-27T01:51:42.770Z,0.00
2019-04-27T01:52:42.766Z,0.00
2019-04-27T01:53:42.762Z,0.00
2019-04-27T01:54:42.755Z,0.00
2019-04-27T01:55:42.750Z,0.00
2019-04-27T01:56:42.747Z,0.00
2019-04-27T01:57:42.743Z,0.00
2019-04-27T01:58:42.738Z,0.00
2019-04-27T01:59:42.737Z,0.00
2019-04-27T02:00:42.728Z,0.00
2019-04-27T02:01:42.723Z,0.00
2019-04-27T02:02:42.715Z,0.00
2019-04-27T02:03:42.709Z,0.00
2019-04-27T02:04:42.711Z,0.00
2019-04-27T02:05:42.702Z,0.00
2019-04-27T02:06:42.696Z,0.00
2019-04-27T02:07:42.690Z,0.00
2019-04-27T02:08:42.686Z,0.00
2019-04-27T02:09:42.683Z,0.00
2019-04-27T02:10:42.678Z,0.00
2019-04-27T02:11:42.669Z,0.00
2019-04-27T02:12:44.028Z,0.00
2019-04-27T02:13:42.662Z,0.00
2019-04-27T02:14:42.656Z,0.00
2019-04-27T02:15:42.656Z,0.00
2019-04-27T02:16:42.646Z,0.00
2019-04-27T02:17:42.644Z,0.00
2019-04-27T02:18:42.639Z,0.00
2019-04-27T02:19:42.635Z,0.00
2019-04-27T02:20:44.402Z,0.00
2019-04-27T02:21:42.623Z,0.00
2019-04-27T02:22:42.617Z,0.00
2019-04-27T02:23:42.618Z,0.00
2019-04-27T02:24:42.609Z,0.00
2019-04-27T02:25:42.603Z,0.00
2019-04-27T02:26:42.599Z,0.00
2019-04-27T02:27:42.593Z,0.00
2019-04-27T02:28:42.596Z,0.00
2019-04-27T02:29:42.591Z,0.00
2019-04-27T02:30:42.581Z,0.00
2019-04-27T02:31:42.582Z,0.00
2019-04-27T02:32:42.601Z,0.00
2019-04-27T02:33:42.574Z,0.00
2019-04-27T02:34:42.565Z,0.00
2019-04-27T02:35:42.561Z,0.00
2019-04-27T02:36:42.578Z,0.00
2019-04-27T02:37:42.549Z,0.00
2019-04-27T02:38:42.550Z,0.00
2019-04-27T02:39:42.533Z,0.00
2019-04-27T02:40:42.725Z,0.00
2019-04-27T02:41:42.532Z,0.00
2019-04-27T02:42:42.521Z,0.00
2019-04-27T02:43:42.517Z,0.00
2019-04-27T02:44:42.512Z,0.00
2019-04-27T02:45:42.515Z,0.00
2019-04-27T02:46:42.510Z,0.00
2019-04-27T02:47:42.495Z,0.00
2019-04-27T02:48:55.467Z,0.00
2019-04-27T02:49:42.485Z,0.00
2019-04-27T02:50:42.478Z,0.00
2019-04-27T02:51:42.957Z,0.00
2019-04-27T02:52:42.470Z,0.00
2019-04-27T02:53:42.466Z,0.00
2019-04-27T02:54:42.469Z,0.00
2019-04-27T02:55:42.456Z,0.00
2019-04-27T02:56:42.453Z,0.00
2019-04-27T02:57:42.450Z,0.00
2019-04-27T02:58:42.439Z,0.00
2019-04-27T02:59:42.432Z,0.00
2019-04-27T03:00:42.431Z,0.00
2019-04-27T03:01:46.553Z,0.00
2019-04-27T03:02:42.416Z,0.00
2019-04-27T03:03:42.411Z,0.00
2019-04-27T03:04:42.407Z,0.00
2019-04-27T03:05:42.402Z,0.00
2019-04-27T03:06:42.396Z,0.00
2019-04-27T03:07:42.837Z,0.00
2019-04-27T03:08:42.832Z,0.00
2019-04-27T03:09:42.384Z,0.00
2019-04-27T03:10:42.376Z,0.00
2019-04-27T03:11:42.371Z,0.00
2019-04-27T03:12:42.557Z,0.00
2019-04-27T03:13:42.371Z,0.00
2019-04-27T03:14:42.354Z,0.00
2019-04-27T03:15:42.351Z,0.00
2019-04-27T03:16:42.344Z,0.00
2019-04-27T03:17:42.338Z,0.00
2019-04-27T03:18:42.332Z,0.00
2019-04-27T03:19:42.324Z,0.00
2019-04-27T03:20:42.323Z,0.00
2019-04-27T03:21:42.318Z,0.00
2019-04-27T03:22:42.314Z,0.00
2019-04-27T03:23:42.310Z,0.00
2019-04-27T03:24:42.301Z,0.00
2019-04-27T03:25:42.295Z,0.00
2019-04-27T03:26:42.293Z,0.00
2019-04-27T03:27:42.293Z,0.00
2019-04-27T03:28:42.282Z,0.00
2019-04-27T03:29:42.271Z,0.00
2019-04-27T03:30:43.360Z,0.00
2019-04-27T03:31:47.317Z,0.00
2019-04-27T03:32:43.368Z,0.00
2019-04-27T03:33:43.316Z,0.00
2019-04-27T03:34:42.307Z,0.00
2019-04-27T03:35:43.717Z,0.00
2019-04-27T03:36:42.239Z,0.00
2019-04-27T03:37:42.239Z,0.00
2019-04-27T03:38:42.223Z,0.00
2019-04-27T03:39:42.220Z,0.00
2019-04-27T03:40:42.215Z,0.00
2019-04-27T03:41:42.212Z,0.00
2019-04-27T03:42:42.206Z,0.00
2019-04-27T03:43:42.200Z,0.00
2019-04-27T03:44:42.196Z,0.00
2019-04-27T03:45:42.190Z,0.00
2019-04-27T03:46:42.186Z,0.00
2019-04-27T03:47:42.176Z,0.00
2019-04-27T03:48:42.174Z,0.00
2019-04-27T03:49:42.175Z,0.00
2019-04-27T03:50:42.964Z,5.63
2019-04-27T03:51:42.159Z,5.63
2019-04-27T03:52:42.154Z,5.63
2019-04-27T03:53:42.156Z,5.63
2019-04-27T03:54:42.143Z,5.63
2019-04-27T03:55:42.710Z,5.63
2019-04-27T03:56:42.131Z,5.63
2019-04-27T03:57:42.130Z,5.63
2019-04-27T03:58:42.123Z,5.63
2019-04-27T03:59:42.117Z,5.63
2019-04-27T04:00:42.121Z,5.63
2019-04-27T04:01:42.106Z,5.63
2019-04-27T04:02:42.118Z,5.63
2019-04-27T04:03:42.096Z,5.63
2019-04-27T04:04:42.089Z,11.25
2019-04-27T04:05:42.095Z,11.25
2019-04-27T04:06:42.088Z,11.25
2019-04-27T04:07:42.077Z,11.25
2019-04-27T04:08:42.069Z,11.25
2019-04-27T04:09:42.069Z,11.25
2019-04-27T04:10:42.062Z,11.25
2019-04-27T04:11:42.058Z,11.25
2019-04-27T04:12:42.049Z,11.25
2019-04-27T04:13:42.052Z,16.88
2019-04-27T04:14:42.927Z,16.88
2019-04-27T04:15:42.034Z,16.88
2019-04-27T04:16:42.030Z,16.88
2019-04-27T04:17:42.027Z,16.88
2019-04-27T04:18:42.018Z,16.88
2019-04-27T04:19:53.960Z,16.88
2019-04-27T04:20:42.009Z,16.88
2019-04-27T04:21:42.005Z,16.88
2019-04-27T04:22:41.998Z,22.50
2019-04-27T04:23:41.993Z,22.50
2019-04-27T04:24:41.987Z,22.50
2019-04-27T04:25:41.983Z,28.13
2019-04-27T04:26:41.978Z,28.13
2019-04-27T04:27:42.761Z,28.13
2019-04-27T04:28:41.967Z,28.13
2019-04-27T04:29:41.965Z,33.75
2019-04-27T04:30:41.957Z,33.75
2019-04-27T04:31:41.954Z,33.75
2019-04-27T04:32:41.950Z,39.38
2019-04-27T04:33:41.941Z,39.38
2019-04-27T04:34:41.940Z,45.00
2019-04-27T04:35:41.939Z,45.00
2019-04-27T04:36:42.540Z,50.63
2019-04-27T04:37:41.924Z,50.63
2019-04-27T04:38:41.913Z,50.63
2019-04-27T04:39:41.909Z,50.63
2019-04-27T04:40:41.916Z,56.25
2019-04-27T04:41:43.587Z,56.25
2019-04-27T04:42:41.896Z,61.88
2019-04-27T04:43:41.895Z,61.88
2019-04-27T04:44:41.886Z,61.88
2019-04-27T04:45:41.880Z,61.88
2019-04-27T04:46:41.874Z,61.88
2019-04-27T04:47:41.866Z,61.88
2019-04-27T04:48:41.864Z,61.88
2019-04-27T04:49:41.855Z,56.25
2019-04-27T04:50:41.851Z,61.88
2019-04-27T04:51:41.850Z,56.25
2019-04-27T04:52:42.422Z,61.88
2019-04-27T04:53:41.837Z,61.88
2019-04-27T04:54:41.837Z,61.88
2019-04-27T04:55:41.826Z,61.88
2019-04-27T04:56:41.826Z,61.88
2019-04-27T04:57:41.817Z,61.88
2019-04-27T04:58:41.817Z,67.50
2019-04-27T04:59:43.761Z,67.50
2019-04-27T05:00:41.803Z,67.50
2019-04-27T05:01:41.797Z,67.50
2019-04-27T05:02:41.791Z,73.13
2019-04-27T05:03:41.788Z,73.13
2019-04-27T05:04:41.781Z,73.13
2019-04-27T05:05:41.782Z,73.13
2019-04-27T05:06:41.770Z,73.13
2019-04-27T05:07:41.767Z,78.75
2019-04-27T05:08:41.762Z,78.75
2019-04-27T05:09:41.765Z,73.13
2019-04-27T05:10:41.751Z,78.75
2019-04-27T05:11:41.749Z,78.75
2019-04-27T05:12:41.741Z,90.00
2019-04-27T05:13:41.735Z,90.00
2019-04-27T05:14:41.740Z,101.25
2019-04-27T05:15:41.725Z,95.63
2019-04-27T05:16:41.723Z,90.00
2019-04-27T05:17:41.719Z,84.38
2019-04-27T05:18:41.715Z,95.63
2019-04-27T05:19:41.711Z,90.00
2019-04-27T05:20:41.707Z,78.75
2019-04-27T05:21:41.704Z,67.50
2019-04-27T05:22:41.692Z,67.50
2019-04-27T05:23:41.687Z,73.13
2019-04-27T05:24:41.685Z,78.75
2019-04-27T05:25:41.679Z,84.38
2019-04-27T05:26:41.677Z,90.00
2019-04-27T05:27:41.676Z,106.88
2019-04-27T05:28:41.668Z,106.88
2019-04-27T05:29:41.663Z,106.88
2019-04-27T05:30:41.659Z,106.88
2019-04-27T05:31:41.653Z,112.50
2019-04-27T05:32:41.648Z,106.88
2019-04-27T05:33:41.644Z,106.88
2019-04-27T05:34:41.637Z,101.25
2019-04-27T05:35:41.632Z,95.63
2019-04-27T05:36:48.347Z,90.00
2019-04-27T05:37:44.336Z,90.00
2019-04-27T05:38:46.033Z,90.00
2019-04-27T05:39:41.613Z,84.38
2019-04-27T05:40:41.612Z,90.00
2019-04-27T05:41:41.843Z,90.00
2019-04-27T05:42:41.603Z,95.63
2019-04-27T05:43:41.596Z,101.25
2019-04-27T05:44:45.721Z,101.25
2019-04-27T05:45:41.590Z,118.13
2019-04-27T05:46:41.580Z,129.38
2019-04-27T05:47:43.284Z,129.38
2019-04-27T05:48:41.573Z,135.00
2019-04-27T05:49:44.418Z,135.00
2019-04-27T05:50:45.635Z,135.00
2019-04-27T05:51:42.076Z,135.00
2019-04-27T05:52:41.558Z,135.00
2019-04-27T05:53:41.553Z,135.00
2019-04-27T05:54:41.547Z,135.00
2019-04-27T05:55:41.542Z,140.63
2019-04-27T05:56:41.538Z,151.88
2019-04-27T05:57:41.534Z,163.13
2019-04-27T05:58:41.528Z,180.00
2019-04-27T05:59:41.521Z,191.25
2019-04-27T06:00:41.522Z,196.88
2019-04-27T06:01:41.517Z,202.50
2019-04-27T06:02:41.516Z,202.50
2019-04-27T06:03:41.499Z,202.50
2019-04-27T06:04:41.502Z,202.50
2019-04-27T06:05:41.497Z,202.50
2019-04-27T06:06:41.500Z,196.88
2019-04-27T06:07:41.487Z,185.63
2019-04-27T06:08:41.486Z,180.00
2019-04-27T06:09:41.489Z,168.75
2019-04-27T06:10:41.475Z,163.13
2019-04-27T06:11:41.479Z,163.13
2019-04-27T06:12:41.466Z,157.50
2019-04-27T06:13:41.469Z,157.50
2019-04-27T06:14:41.461Z,151.88
2019-04-27T06:15:41.456Z,151.88
2019-04-27T06:16:41.457Z,151.88
2019-04-27T06:17:41.447Z,157.50
2019-04-27T06:18:41.445Z,163.13
2019-04-27T06:19:43.794Z,168.75
2019-04-27T06:20:51.296Z,180.00
2019-04-27T06:21:41.431Z,185.63
2019-04-27T06:22:41.427Z,191.25
2019-04-27T06:23:41.422Z,196.88
2019-04-27T06:24:41.418Z,202.50
2019-04-27T06:25:41.417Z,208.13
2019-04-27T06:26:41.413Z,213.75
2019-04-27T06:27:41.407Z,219.38
2019-04-27T06:28:41.402Z,236.25
2019-04-27T06:29:41.399Z,241.88
2019-04-27T06:30:41.394Z,241.88
2019-04-27T06:31:41.392Z,247.50
2019-04-27T06:32:41.387Z,247.50
2019-04-27T06:33:41.384Z,253.13
2019-04-27T06:34:41.382Z,258.75
2019-04-27T06:35:41.375Z,275.63
2019-04-27T06:36:41.378Z,270.00
2019-04-27T06:37:41.370Z,281.25
2019-04-27T06:38:41.364Z,292.50
2019-04-27T06:39:41.362Z,309.38
2019-04-27T06:40:41.358Z,326.25
2019-04-27T06:41:41.354Z,331.88
2019-04-27T06:42:41.348Z,343.13
2019-04-27T06:43:41.346Z,354.38
2019-04-27T06:44:41.342Z,360.00
2019-04-27T06:45:41.339Z,371.25
2019-04-27T06:46:41.338Z,360.00
2019-04-27T06:47:41.524Z,343.13
2019-04-27T06:48:41.327Z,320.63
2019-04-27T06:49:41.331Z,292.50
2019-04-27T06:50:41.326Z,275.63
2019-04-27T06:51:41.320Z,258.75
2019-04-27T06:52:41.316Z,236.25
2019-04-27T06:53:41.312Z,225.00
2019-04-27T06:54:41.307Z,219.38
2019-04-27T06:55:41.308Z,202.50
2019-04-27T06:56:41.305Z,202.50
2019-04-27T06:57:41.366Z,202.50
2019-04-27T06:58:41.296Z,225.00
2019-04-27T06:59:41.295Z,219.38
2019-04-27T07:00:41.292Z,236.25
2019-04-27T07:01:41.288Z,292.50
2019-04-27T07:02:41.283Z,292.50
2019-04-27T07:03:41.287Z,337.50
2019-04-27T07:04:41.277Z,315.00
2019-04-27T07:05:41.275Z,343.13
2019-04-27T07:06:52.555Z,354.38
2019-04-27T07:07:41.266Z,354.38
2019-04-27T07:08:41.264Z,360.00
2019-04-27T07:09:41.262Z,360.00
2019-04-27T07:10:41.261Z,360.00
2019-04-27T07:11:41.251Z,354.38
2019-04-27T07:12:41.308Z,360.00
2019-04-27T07:13:41.250Z,360.00
2019-04-27T07:14:52.361Z,354.38
2019-04-27T07:15:41.244Z,360.00
2019-04-27T07:16:41.246Z,337.50
2019-04-27T07:17:41.242Z,343.13
2019-04-27T07:18:41.236Z,315.00
2019-04-27T07:19:41.235Z,292.50
2019-04-27T07:20:41.235Z,270.00
2019-04-27T07:21:41.227Z,253.13
2019-04-27T07:22:41.228Z,247.50
2019-04-27T07:23:41.225Z,247.50
2019-04-27T07:24:41.222Z,258.75
2019-04-27T07:25:41.218Z,275.63
2019-04-27T07:26:41.214Z,315.00
2019-04-27T07:27:41.214Z,320.63
2019-04-27T07:28:41.211Z,309.38
2019-04-27T07:29:44.719Z,360.00
2019-04-27T07:30:41.201Z,399.38
2019-04-27T07:31:41.203Z,450.00
2019-04-27T07:32:41.209Z,472.50
2019-04-27T07:33:41.198Z,478.13
2019-04-27T07:34:41.195Z,466.88
2019-04-27T07:35:41.191Z,466.88
2019-04-27T07:36:41.194Z,461.25
2019-04-27T07:37:41.190Z,455.63
2019-04-27T07:38:41.184Z,461.25
2019-04-27T07:39:41.182Z,444.38
2019-04-27T07:40:42.043Z,551.25
2019-04-27T07:41:41.180Z,601.88
2019-04-27T07:42:41.430Z,590.63
2019-04-27T07:43:41.175Z,568.13
2019-04-27T07:44:41.171Z,517.50
2019-04-27T07:45:41.171Z,562.50
2019-04-27T07:46:41.168Z,534.38
2019-04-27T07:47:41.171Z,528.75
2019-04-27T07:48:41.164Z,466.88
2019-04-27T07:49:41.163Z,444.38
2019-04-27T07:50:41.162Z,500.63
2019-04-27T07:51:41.159Z,483.75
2019-04-27T07:52:41.173Z,489.38
2019-04-27T07:53:41.156Z,466.88
2019-04-27T07:54:41.167Z,466.88
2019-04-27T07:55:41.149Z,483.75
2019-04-27T07:56:41.151Z,517.50
2019-04-27T07:57:41.161Z,562.50
2019-04-27T07:58:41.151Z,551.25
2019-04-27T07:59:42.071Z,562.50
2019-04-27T08:00:41.146Z,545.63
2019-04-27T08:01:41.142Z,455.63
2019-04-27T08:02:41.144Z,495.00
2019-04-27T08:03:41.143Z,517.50
2019-04-27T08:04:41.145Z,489.38
2019-04-27T08:05:41.141Z,438.75
2019-04-27T08:06:41.135Z,427.50
2019-04-27T08:07:41.139Z,427.50
2019-04-27T08:08:41.134Z,405.00
2019-04-27T08:09:41.132Z,399.38
2019-04-27T08:10:41.135Z,393.75
2019-04-27T08:11:41.164Z,371.25
2019-04-27T08:12:41.132Z,382.50
2019-04-27T08:13:41.128Z,382.50
2019-04-27T08:14:41.126Z,371.25
2019-04-27T08:15:41.130Z,348.75
2019-04-27T08:16:41.122Z,326.25
2019-04-27T08:17:42.907Z,309.38
2019-04-27T08:18:41.122Z,286.88
2019-04-27T08:19:41.120Z,275.63
2019-04-27T08:20:41.117Z,264.38
2019-04-27T08:21:44.358Z,253.13
2019-04-27T08:22:41.118Z,247.50
2019-04-27T08:23:41.121Z,247.50
2019-04-27T08:24:41.117Z,236.25
2019-04-27T08:25:41.107Z,236.25
2019-04-27T08:26:41.109Z,236.25
2019-04-27T08:27:41.112Z,236.25
2019-04-27T08:28:41.108Z,236.25
2019-04-27T08:29:41.103Z,241.88
2019-04-27T08:30:41.106Z,241.88
2019-04-27T08:31:41.106Z,247.50
2019-04-27T08:32:41.506Z,241.88
2019-04-27T08:33:41.103Z,253.13
2019-04-27T08:34:41.105Z,264.38
2019-04-27T08:35:41.122Z,275.63
2019-04-27T08:36:41.103Z,286.88
2019-04-27T08:37:41.099Z,298.13
2019-04-27T08:38:41.093Z,309.38
2019-04-27T08:39:41.100Z,320.63
2019-04-27T08:40:41.091Z,331.88
2019-04-27T08:41:41.088Z,382.50
2019-04-27T08:42:41.086Z,421.88
2019-04-27T08:43:41.087Z,483.75
2019-04-27T08:44:41.088Z,545.63
2019-04-27T08:45:41.087Z,601.88
2019-04-27T08:46:41.079Z,579.38
2019-04-27T08:47:41.792Z,652.50
2019-04-27T08:48:41.080Z,540.00
2019-04-27T08:49:41.077Z,590.63
2019-04-27T08:50:42.151Z,613.13
2019-04-27T08:51:41.527Z,585.00
2019-04-27T08:52:41.878Z,568.13
2019-04-27T08:53:41.073Z,573.75
2019-04-27T08:54:41.069Z,568.13
2019-04-27T08:55:41.072Z,590.63
2019-04-27T08:56:41.066Z,540.00
2019-04-27T08:57:41.068Z,556.88
2019-04-27T08:58:41.072Z,540.00
2019-04-27T08:59:41.065Z,534.38
2019-04-27T09:00:41.065Z,523.13
2019-04-27T09:01:41.067Z,433.13
2019-04-27T09:02:46.865Z,365.63
2019-04-27T09:03:41.062Z,466.88
2019-04-27T09:04:41.065Z,483.75
2019-04-27T09:05:41.066Z,433.13
2019-04-27T09:06:41.060Z,483.75
2019-04-27T09:07:41.060Z,568.13
2019-04-27T09:08:41.410Z,590.63
2019-04-27T09:09:41.057Z,590.63
2019-04-27T09:10:41.055Z,585.00
2019-04-27T09:11:41.055Z,568.13
2019-04-27T09:12:41.564Z,545.63
2019-04-27T09:13:41.263Z,540.00
2019-04-27T09:14:41.052Z,534.38
2019-04-27T09:15:41.055Z,556.88
2019-04-27T09:16:41.052Z,585.00
2019-04-27T09:17:41.052Z,540.00
2019-04-27T09:18:41.180Z,483.75
2019-04-27T09:19:41.051Z,562.50
2019-04-27T09:20:41.050Z,585.00
2019-04-27T09:21:41.050Z,579.38
2019-04-27T09:22:41.050Z,551.25
2019-04-27T09:23:41.047Z,562.50
2019-04-27T09:24:41.047Z,556.88
2019-04-27T09:25:41.047Z,540.00
2019-04-27T09:26:41.049Z,517.50
2019-04-27T09:27:41.047Z,506.25
2019-04-27T09:28:41.049Z,534.38
2019-04-27T09:29:41.055Z,568.13
2019-04-27T09:30:41.046Z,573.75
2019-04-27T09:31:41.042Z,585.00
2019-04-27T09:32:41.038Z,556.88
2019-04-27T09:33:41.044Z,517.50
2019-04-27T09:34:41.042Z,540.00
2019-04-27T09:35:41.046Z,579.38
2019-04-27T09:36:41.041Z,618.75
2019-04-27T09:37:41.040Z,624.38
2019-04-27T09:38:41.041Z,540.00
2019-04-27T09:39:41.041Z,540.00
2019-04-27T09:40:41.039Z,585.00
2019-04-27T09:41:41.040Z,579.38
2019-04-27T09:42:41.041Z,585.00
2019-04-27T09:43:41.040Z,596.25
2019-04-27T09:44:41.039Z,601.88
2019-04-27T09:45:41.038Z,607.50
2019-04-27T09:46:41.043Z,613.13
2019-04-27T09:47:41.041Z,607.50
2019-04-27T09:48:41.035Z,601.88
2019-04-27T09:49:41.036Z,601.88
2019-04-27T09:50:41.037Z,590.63
2019-04-27T09:51:41.036Z,573.75
2019-04-27T09:52:41.037Z,556.88
2019-04-27T09:53:41.033Z,551.25
2019-04-27T09:54:41.031Z,551.25
2019-04-27T09:55:41.031Z,556.88
2019-04-27T09:56:41.032Z,568.13
2019-04-27T09:57:41.036Z,573.75
2019-04-27T09:58:41.031Z,568.13
2019-04-27T09:59:41.031Z,556.88
2019-04-27T10:00:41.031Z,523.13
2019-04-27T10:01:41.034Z,506.25
2019-04-27T10:02:41.030Z,495.00
2019-04-27T10:03:41.029Z,506.25
2019-04-27T10:04:41.023Z,523.13
2019-04-27T10:05:41.035Z,528.75
2019-04-27T10:06:41.026Z,534.38
2019-04-27T10:07:41.072Z,545.63
2019-04-27T10:08:41.028Z,562.50
2019-04-27T10:09:41.025Z,579.38
2019-04-27T10:10:41.026Z,585.00
2019-04-27T10:11:41.025Z,590.63
2019-04-27T10:12:41.030Z,596.25
2019-04-27T10:13:41.028Z,601.88
2019-04-27T10:14:41.037Z,607.50
2019-04-27T10:15:41.055Z,607.50
2019-04-27T10:16:41.025Z,618.75
2019-04-27T10:17:41.031Z,607.50
2019-04-27T10:18:41.025Z,585.00
2019-04-27T10:19:41.025Z,579.38
2019-04-27T10:20:41.194Z,568.13
2019-04-27T10:21:41.028Z,585.00
2019-04-27T10:22:43.463Z,585.00
2019-04-27T10:23:41.024Z,573.75
2019-04-27T10:24:41.028Z,523.13
2019-04-27T10:25:41.027Z,506.25
2019-04-27T10:26:43.729Z,511.88
2019-04-27T10:27:41.027Z,528.75
2019-04-27T10:28:41.024Z,540.00
2019-04-27T10:29:41.026Z,540.00
2019-04-27T10:30:41.029Z,540.00
2019-04-27T10:31:41.028Z,534.38
2019-04-27T10:32:42.835Z,540.00
2019-04-27T10:33:41.025Z,545.63
2019-04-27T10:34:41.027Z,562.50
2019-04-27T10:35:41.026Z,573.75
2019-04-27T10:36:41.031Z,579.38
2019-04-27T10:37:41.027Z,585.00
2019-04-27T10:38:41.027Z,590.63
2019-04-27T10:39:41.028Z,596.25
2019-04-27T10:40:41.029Z,596.25
2019-04-27T10:41:41.029Z,596.25
2019-04-27T10:42:41.030Z,596.25
2019-04-27T10:43:41.028Z,596.25
2019-04-27T10:44:41.026Z,590.63
2019-04-27T10:45:41.031Z,585.00
2019-04-27T10:46:41.029Z,579.38
2019-04-27T10:47:41.031Z,579.38
2019-04-27T10:48:41.032Z,585.00
2019-04-27T10:49:41.031Z,585.00
2019-04-27T10:50:41.031Z,585.00
2019-04-27T10:51:41.032Z,590.63
2019-04-27T10:52:52.845Z,596.25
2019-04-27T10:53:41.036Z,601.88
2019-04-27T10:54:41.036Z,601.88
2019-04-27T10:55:41.037Z,596.25
2019-04-27T10:56:41.037Z,585.00
2019-04-27T10:57:41.037Z,579.38
2019-04-27T10:58:41.053Z,573.75
2019-04-27T10:59:41.079Z,562.50
2019-04-27T11:00:41.037Z,545.63
2019-04-27T11:01:41.041Z,528.75
2019-04-27T11:02:41.038Z,517.50
2019-04-27T11:03:41.042Z,517.50
2019-04-27T11:04:41.041Z,517.50
2019-04-27T11:05:41.050Z,528.75
2019-04-27T11:06:41.042Z,534.38
2019-04-27T11:07:41.045Z,540.00
2019-04-27T11:08:41.045Z,540.00
2019-04-27T11:09:41.049Z,545.63
2019-04-27T11:10:41.044Z,556.88
2019-04-27T11:11:41.050Z,556.88
2019-04-27T11:12:41.049Z,545.63
2019-04-27T11:13:41.049Z,528.75
2019-04-27T11:14:41.053Z,506.25
2019-04-27T11:15:41.052Z,495.00
2019-04-27T11:16:41.055Z,500.63
2019-04-27T11:17:41.053Z,506.25
2019-04-27T11:18:41.059Z,506.25
2019-04-27T11:19:41.053Z,506.25
2019-04-27T11:20:41.055Z,523.13
2019-04-27T11:21:41.061Z,534.38
2019-04-27T11:22:41.056Z,540.00
2019-04-27T11:23:41.064Z,534.38
2019-04-27T11:24:41.060Z,545.63
2019-04-27T11:25:41.058Z,545.63
2019-04-27T11:26:41.059Z,556.88
2019-04-27T11:27:41.061Z,585.00
2019-04-27T11:28:42.710Z,579.38
2019-04-27T11:29:41.063Z,568.13
2019-04-27T11:30:41.065Z,528.75
2019-04-27T11:31:41.065Z,495.00
2019-04-27T11:32:41.075Z,466.88
2019-04-27T11:33:41.069Z,461.25
2019-04-27T11:34:41.071Z,472.50
2019-04-27T11:35:41.068Z,455.63
2019-04-27T11:36:41.070Z,416.25
2019-04-27T11:37:41.072Z,405.00
2019-04-27T11:38:41.070Z,376.88
2019-04-27T11:39:41.075Z,388.13
2019-04-27T11:40:41.072Z,365.63
2019-04-27T11:41:41.075Z,315.00
2019-04-27T11:42:41.074Z,315.00
2019-04-27T11:43:41.077Z,275.63
2019-04-27T11:44:41.080Z,270.00
2019-04-27T11:45:41.080Z,298.13
2019-04-27T11:46:41.080Z,343.13
2019-04-27T11:47:41.081Z,371.25
2019-04-27T11:48:41.082Z,348.75
2019-04-27T11:49:41.083Z,326.25
2019-04-27T11:50:41.085Z,303.75
2019-04-27T11:51:41.084Z,292.50
2019-04-27T11:52:41.085Z,286.88
2019-04-27T11:53:41.084Z,264.38
2019-04-27T11:54:41.108Z,286.88
2019-04-27T11:55:41.085Z,315.00
2019-04-27T11:56:41.089Z,303.75
2019-04-27T11:57:41.093Z,320.63
2019-04-27T11:58:41.090Z,337.50
2019-04-27T11:59:41.090Z,320.63
2019-04-27T12:00:41.094Z,315.00
2019-04-27T12:01:41.096Z,331.88
2019-04-27T12:02:41.089Z,309.38
2019-04-27T12:03:41.095Z,286.88
2019-04-27T12:04:41.097Z,303.75
2019-04-27T12:05:41.119Z,270.00
2019-04-27T12:06:41.096Z,264.38
2019-04-27T12:07:41.096Z,258.75
2019-04-27T12:08:41.097Z,275.63
2019-04-27T12:09:41.101Z,258.75
2019-04-27T12:10:41.097Z,258.75
2019-04-27T12:11:41.096Z,275.63
2019-04-27T12:12:41.100Z,225.00
2019-04-27T12:13:41.101Z,219.38
2019-04-27T12:14:41.103Z,230.63
2019-04-27T12:15:41.101Z,258.75
2019-04-27T12:16:41.106Z,264.38
2019-04-27T12:17:41.112Z,253.13
2019-04-27T12:18:41.106Z,236.25
2019-04-27T12:19:41.104Z,236.25
2019-04-27T12:20:41.107Z,230.63
2019-04-27T12:21:41.116Z,236.25
2019-04-27T12:22:41.103Z,225.00
2019-04-27T12:23:41.400Z,225.00
2019-04-27T12:24:41.106Z,219.38
2019-04-27T12:25:41.109Z,208.13
2019-04-27T12:26:41.134Z,219.38
2019-04-27T12:27:41.110Z,241.88
2019-04-27T12:28:41.108Z,292.50
2019-04-27T12:29:41.110Z,264.38
2019-04-27T12:30:41.113Z,315.00
2019-04-27T12:31:43.815Z,331.88
2019-04-27T12:32:41.109Z,348.75
2019-04-27T12:33:41.112Z,348.75
2019-04-27T12:34:41.112Z,337.50
2019-04-27T12:35:41.112Z,292.50
2019-04-27T12:36:41.113Z,253.13
2019-04-27T12:37:41.114Z,230.63
2019-04-27T12:38:41.109Z,213.75
2019-04-27T12:39:41.114Z,202.50
2019-04-27T12:40:41.118Z,196.88
2019-04-27T12:41:41.112Z,202.50
2019-04-27T12:42:41.115Z,202.50
2019-04-27T12:43:41.116Z,213.75
2019-04-27T12:44:42.448Z,230.63
2019-04-27T12:45:43.626Z,253.13
2019-04-27T12:46:41.115Z,298.13